Johnsonburg, Pennsylvania
Current Conditions -  °F | °C
As of 12:15 PM on Thursday 27 Nov 2014 (Local Time) from KBFD Reporting Station
Overcast Overcast  
Wind Chill: 23°   Ceiling: 3500
Heat Index: 30°   Visibility: 10mi
Dew Point: 21°   Wind: 7mph
Humidity: 69%   Direction: 310°NW
Pressure: 29.97"   Gusts: NA
Location:  41.49°N, 78.68°W
Report Text: KBFD 271715Z AUTO 31006KT 10SM FEW018 BKN035 OVC049 M01/M06 A2997 RMK AO2 T10111061
Loading
Personal Weather Stations






























Interactive Weather Map New forecast layout! Learn more

10-Day Weather Forecast

Advertisements
Track Severe Weather on mobile